Herbert — DC7798 — position and weather

sailwx.info

Track history (hours):
 
Tides and Currents Weather Stations Pressure Air Temp Water Temp Dewpoint Dewpoint Depression Visibility Wind Speed Wind Dir Waves Ship Positions

Herbert

Last reported at 2017-Dec-10 16:11 UTC. Time now 2017-Dec-11 02:17 UTC.
Position N 47°35' E 019°04'.

Length 80 m; draft 0.3 m.

Type: Ship. MMSI: 211625650.

Date/timePositionNaut miles runAvg speedWind from/ knotsBaromVisibWave heightAir tempDewpointWater temp
2017-Dec-10 16:11N 47°35' E 019°04'1 5.6
2017-Dec-10 16:00N 47°34' E 019°04'3 5.1
2017-Dec-10 15:29N 47°31' E 019°03'2 5.0
2017-Dec-10 15:00N 47°29' E 019°04'2 4.3
2017-Dec-10 14:30N 47°27' E 019°03'2 4.5
2017-Dec-10 14:00N 47°25' E 019°03'  
2017-Dec-01 19:12N 47°20' E 018°57'3 8.8
2017-Dec-01 18:48N 47°23' E 018°60'3 8.8
2017-Dec-01 18:30N 47°25' E 019°03'4 8.9
2017-Dec-01 18:00N 47°30' E 019°03'4 8.3
2017-Dec-01 17:30N 47°34' E 019°04'0 0.1
2017-Dec-01 16:58N 47°34' E 019°04'0 0.0
2017-Dec-01 16:30N 47°34' E 019°04'0 0.0
2017-Dec-01 15:59N 47°34' E 019°04'0 0.0
2017-Dec-01 15:30N 47°34' E 019°04'0 0.0
2017-Dec-01 15:00N 47°34' E 019°04'0 0.0
2017-Dec-01 14:30N 47°34' E 019°04'1 1.2
2017-Dec-01 14:00N 47°33' E 019°04'0 0.0
2017-Dec-01 13:30N 47°33' E 019°04'0 0.1
2017-Dec-01 13:00N 47°33' E 019°04'0 0.0
2017-Dec-01 12:28N 47°33' E 019°04'2 4.0
2017-Dec-01 12:00N 47°35' E 019°04'  
Track history (hours):
 
Tides and Currents Weather Stations Pressure Air Temp Water Temp Dewpoint Dewpoint Depression Visibility Wind Speed Wind Dir Waves Ship Positions

Herbert

Last reported at 2017-Dec-10 16:11 UTC. Time now 2017-Dec-11 02:17 UTC.
Position N 47°35' E 019°04'.

Length 80 m; draft 0.3 m.

Type: Ship. MMSI: 211625650.

Date/timePositionNaut miles runAvg speedWind from/ knotsBaromVisibWave heightAir tempDewpointWater temp
2017-Dec-10 16:11N 47°35' E 019°04'1 5.6
2017-Dec-10 16:00N 47°34' E 019°04'3 5.1
2017-Dec-10 15:29N 47°31' E 019°03'2 5.0
2017-Dec-10 15:00N 47°29' E 019°04'2 4.3
2017-Dec-10 14:30N 47°27' E 019°03'2 4.5
2017-Dec-10 14:00N 47°25' E 019°03'  
2017-Dec-01 19:12N 47°20' E 018°57'3 8.8
2017-Dec-01 18:48N 47°23' E 018°60'3 8.8
2017-Dec-01 18:30N 47°25' E 019°03'4 8.9
2017-Dec-01 18:00N 47°30' E 019°03'4 8.3
2017-Dec-01 17:30N 47°34' E 019°04'0 0.1
2017-Dec-01 16:58N 47°34' E 019°04'0 0.0
2017-Dec-01 16:30N 47°34' E 019°04'0 0.0
2017-Dec-01 15:59N 47°34' E 019°04'0 0.0
2017-Dec-01 15:30N 47°34' E 019°04'0 0.0
2017-Dec-01 15:00N 47°34' E 019°04'0 0.0
2017-Dec-01 14:30N 47°34' E 019°04'1 1.2
2017-Dec-01 14:00N 47°33' E 019°04'0 0.0
2017-Dec-01 13:30N 47°33' E 019°04'0 0.1
2017-Dec-01 13:00N 47°33' E 019°04'0 0.0
2017-Dec-01 12:28N 47°33' E 019°04'2 4.0
2017-Dec-01 12:00N 47°35' E 019°04'  

Dump ship's entire track history